Bocking's Elm, United Kingdom
Current Conditions -  °F | °C
As of 5:50 AM on Monday 26 Jan 2015 (Local Time) from EGUW Reporting Station
Overcast Overcast  
Wind Chill: 40°   Ceiling: 1200
Heat Index: 45°   Visibility: 6mi
Dew Point: 43°   Wind: 9mph
Humidity: 93%   Direction: 240°WSW
Pressure: 30.09"   Gusts: NA
Location:  51.86°N, 1.15°E
Report Text: EGUW 260550Z 24008KT 9999 OVC012 07/06 Q1019 GRN BECMG SCT015 WHT
Loading
Personal Weather Stations






























Interactive Weather Map New forecast layout! Learn more

10-Day Weather Forecast

Advertisements
Track Severe Weather on mobile